sensor_id;sensor_type;location;lat;lon;timestamp;pressure;altitude;pressure_sealevel;temperature;humidity
59375;BME280;45172;55.006;73.460;2024-02-26T14:28:23;101976.34;;;-4.07;100.00
59375;BME280;45172;55.006;73.460;2024-02-26T14:30:51;101946.78;;;-4.01;100.00
59375;BME280;45172;55.006;73.460;2024-02-26T14:33:18;101955.94;;;-3.69;100.00
59375;BME280;45172;55.006;73.460;2024-02-26T14:35:44;101958.38;;;-3.53;100.00
59375;BME280;45172;55.006;73.460;2024-02-26T14:38:11;102004.34;;;-3.06;100.00
59375;BME280;45172;55.006;73.460;2024-02-26T14:40:38;101972.16;;;-3.08;100.00
59375;BME280;45172;55.006;73.460;2024-02-26T14:43:04;101984.75;;;-2.85;100.00
59375;BME280;45172;55.006;73.460;2024-02-26T14:45:31;101913.59;;;-3.06;100.00
59375;BME280;45172;55.006;73.460;2024-02-26T14:47:58;101958.16;;;-2.73;100.00
59375;BME280;45172;55.006;73.460;2024-02-26T14:50:25;101972.38;;;-2.51;100.00
59375;BME280;45172;55.006;73.460;2024-02-26T14:52:51;101993.56;;;-2.37;100.00
59375;BME280;45172;55.006;73.460;2024-02-26T14:55:18;101974.00;;;-2.34;100.00
59375;BME280;45172;55.006;73.460;2024-02-26T14:57:45;101920.72;;;-2.58;100.00
59375;BME280;45172;55.006;73.460;2024-02-26T15:00:11;101972.66;;;-2.20;100.00
59375;BME280;45172;55.006;73.460;2024-02-26T15:02:38;101987.38;;;-2.01;100.00
59375;BME280;45172;55.006;73.460;2024-02-26T15:05:05;101960.25;;;-2.13;100.00
59375;BME280;45172;55.006;73.460;2024-02-26T15:07:33;101945.63;;;-2.13;100.00
59375;BME280;45172;55.006;73.460;2024-02-26T15:09:59;101990.19;;;-1.89;100.00
59375;BME280;45172;55.006;73.460;2024-02-26T15:12:26;101980.94;;;-1.96;100.00
59375;BME280;45172;55.006;73.460;2024-02-26T15:14:53;101972.06;;;-1.98;100.00
59375;BME280;45172;55.006;73.460;2024-02-26T15:17:20;101980.94;;;-1.96;100.00
59375;BME280;45172;55.006;73.460;2024-02-26T15:19:46;101983.38;;;-1.97;100.00
59375;BME280;45172;55.006;73.460;2024-02-26T15:22:13;101968.41;;;-2.19;100.00
59375;BME280;45172;55.006;73.460;2024-02-26T15:24:39;101929.59;;;-2.37;100.00
59375;BME280;45172;55.006;73.460;2024-02-26T15:27:26;101984.75;;;-2.20;100.00
59375;BME280;45172;55.006;73.460;2024-02-26T15:30:52;101942.19;;;-2.50;100.00
59375;BME280;45172;55.006;73.460;2024-02-26T15:37:25;101943.94;;;-2.68;100.00
59375;BME280;45172;55.006;73.460;2024-02-26T15:39:52;101938.75;;;-2.68;100.00
59375;BME280;45172;55.006;73.460;2024-02-26T15:42:18;101938.94;;;-2.76;100.00
59375;BME280;45172;55.006;73.460;2024-02-26T15:44:45;101948.63;;;-2.92;100.00
59375;BME280;45172;55.006;73.460;2024-02-26T15:47:11;101932.69;;;-3.14;100.00
59375;BME280;45172;55.006;73.460;2024-02-26T15:49:39;101977.22;;;-3.10;100.00
59375;BME280;45172;55.006;73.460;2024-02-26T15:52:05;101956.09;;;-3.41;100.00
59375;BME280;45172;55.006;73.460;2024-02-26T15:54:32;101930.03;;;-3.69;100.00
59375;BME280;45172;55.006;73.460;2024-02-26T15:56:59;102003.03;;;-3.38;100.00
59375;BME280;45172;55.006;73.460;2024-02-26T15:59:25;101977.44;;;-3.70;100.00
59375;BME280;45172;55.006;73.460;2024-02-26T16:01:52;102009.28;;;-3.62;100.00
59375;BME280;45172;55.006;73.460;2024-02-26T16:04:18;101991.63;;;-3.84;100.00
59375;BME280;45172;55.006;73.460;2024-02-26T16:06:49;101943.31;;;-4.19;100.00
59375;BME280;45172;55.006;73.460;2024-02-26T16:09:17;101978.03;;;-4.08;100.00
59375;BME280;45172;55.006;73.460;2024-02-26T16:11:44;101993.56;;;-4.08;100.00
59375;BME280;45172;55.006;73.460;2024-02-26T16:14:49;101922.06;;;-4.59;100.00
59375;BME280;45172;55.006;73.460;2024-02-26T16:17:24;101959.50;;;-4.55;100.00
59375;BME280;45172;55.006;73.460;2024-02-26T16:19:52;101965.88;;;-4.60;100.00
59375;BME280;45172;55.006;73.460;2024-02-26T16:22:18;102004.13;;;-4.49;100.00
59375;BME280;45172;55.006;73.460;2024-02-26T16:24:45;102010.78;;;-4.51;100.00
59375;BME280;45172;55.006;73.460;2024-02-26T16:27:11;102011.34;;;-4.62;100.00
59375;BME280;45172;55.006;73.460;2024-02-26T16:29:37;101951.84;;;-5.05;100.00
59375;BME280;45172;55.006;73.460;2024-02-26T16:32:04;101994.06;;;-4.88;100.00
59375;BME280;45172;55.006;73.460;2024-02-26T16:34:30;102023.13;;;-4.82;100.00
59375;BME280;45172;55.006;73.460;2024-02-26T16:36:57;102006.34;;;-4.95;100.00
59375;BME280;45172;55.006;73.460;2024-02-26T16:39:23;101990.78;;;-5.03;100.00
59375;BME280;45172;55.006;73.460;2024-02-26T16:41:49;102014.69;;;-4.97;100.00
59375;BME280;45172;55.006;73.460;2024-02-26T16:44:15;101968.56;;;-5.35;100.00
59375;BME280;45172;55.006;73.460;2024-02-26T16:46:42;101961.81;;;-5.42;100.00
59375;BME280;45172;55.006;73.460;2024-02-26T16:49:10;101981.03;;;-5.31;100.00
59375;BME280;45172;55.006;73.460;2024-02-26T16:51:39;102018.72;;;-5.08;100.00
59375;BME280;45172;55.006;73.460;2024-02-26T16:54:05;102008.06;;;-5.11;100.00
59375;BME280;45172;55.006;73.460;2024-02-26T16:56:32;101991.25;;;-5.24;100.00
59375;BME280;45172;55.006;73.460;2024-02-26T16:58:58;102005.00;;;-5.16;100.00
59375;BME280;45172;55.006;73.460;2024-02-26T17:01:24;102010.00;;;-5.17;100.00
59375;BME280;45172;55.006;73.460;2024-02-26T17:03:51;101958.25;;;-5.51;100.00
59375;BME280;45172;55.006;73.460;2024-02-26T17:06:18;101931.13;;;-5.64;100.00
59375;BME280;45172;55.006;73.460;2024-02-26T17:08:49;101994.59;;;-5.25;100.00
59375;BME280;45172;55.006;73.460;2024-02-26T17:11:17;101973.38;;;-5.38;100.00
59375;BME280;45172;55.006;73.460;2024-02-26T17:13:43;101997.47;;;-5.30;100.00
59375;BME280;45172;55.006;73.460;2024-02-26T17:16:10;101998.94;;;-5.32;100.00
59375;BME280;45172;55.006;73.460;2024-02-26T17:18:36;101963.69;;;-5.57;100.00
59375;BME280;45172;55.006;73.460;2024-02-26T17:21:03;101991.75;;;-5.44;100.00
59375;BME280;45172;55.006;73.460;2024-02-26T17:23:29;101932.53;;;-5.83;100.00
59375;BME280;45172;55.006;73.460;2024-02-26T17:25:58;101921.53;;;-5.89;100.00
59375;BME280;45172;55.006;73.460;2024-02-26T17:28:25;101882.25;;;-6.12;100.00
59375;BME280;45172;55.006;73.460;2024-02-26T17:30:52;101985.44;;;-5.55;100.00
59375;BME280;45172;55.006;73.460;2024-02-26T17:33:18;101959.03;;;-5.68;100.00
59375;BME280;45172;55.006;73.460;2024-02-26T17:35:44;101999.69;;;-5.58;100.00
59375;BME280;45172;55.006;73.460;2024-02-26T17:38:11;101923.28;;;-5.97;100.00
59375;BME280;45172;55.006;73.460;2024-02-26T17:40:37;101893.28;;;-6.13;100.00
59375;BME280;45172;55.006;73.460;2024-02-26T17:43:04;101891.13;;;-6.17;100.00
59375;BME280;45172;55.006;73.460;2024-02-26T17:45:30;101904.25;;;-6.07;100.00
59375;BME280;45172;55.006;73.460;2024-02-26T17:47:57;101983.53;;;-5.65;100.00
59375;BME280;45172;55.006;73.460;2024-02-26T17:50:23;101939.09;;;-5.94;100.00
59375;BME280;45172;55.006;73.460;2024-02-26T17:52:50;101919.75;;;-6.07;100.00
59375;BME280;45172;55.006;73.460;2024-02-26T17:55:19;101951.56;;;-5.90;100.00
59375;BME280;45172;55.006;73.460;2024-02-26T17:57:45;101945.91;;;-5.95;100.00
59375;BME280;45172;55.006;73.460;2024-02-26T18:00:12;101912.94;;;-6.22;100.00
59375;BME280;45172;55.006;73.460;2024-02-26T18:02:39;101916.00;;;-6.17;100.00
59375;BME280;45172;55.006;73.460;2024-02-26T18:05:05;101948.13;;;-6.07;100.00
59375;BME280;45172;55.006;73.460;2024-02-26T18:07:32;101894.28;;;-6.36;100.00
59375;BME280;45172;55.006;73.460;2024-02-26T18:09:58;101963.50;;;-5.99;100.00
59375;BME280;45172;55.006;73.460;2024-02-26T18:12:27;101957.69;;;-6.06;100.00
59375;BME280;45172;55.006;73.460;2024-02-26T18:14:53;101903.13;;;-6.34;100.00
59375;BME280;45172;55.006;73.460;2024-02-26T18:17:19;101932.59;;;-6.15;100.00
59375;BME280;45172;55.006;73.460;2024-02-26T18:19:48;101919.16;;;-6.20;100.00
59375;BME280;45172;55.006;73.460;2024-02-26T18:22:15;101944.38;;;-6.17;100.00
59375;BME280;45172;55.006;73.460;2024-02-26T18:24:41;101862.38;;;-6.61;100.00
59375;BME280;45172;55.006;73.460;2024-02-26T18:27:08;101955.75;;;-5.99;100.00
59375;BME280;45172;55.006;73.460;2024-02-26T18:29:35;101924.50;;;-6.19;100.00
59375;BME280;45172;55.006;73.460;2024-02-26T18:32:01;101956.81;;;-5.97;100.00
59375;BME280;45172;55.006;73.460;2024-02-26T18:34:27;101962.75;;;-5.98;100.00
59375;BME280;45172;55.006;73.460;2024-02-26T18:36:54;101901.53;;;-6.40;100.00
59375;BME280;45172;55.006;73.460;2024-02-26T18:39:21;101974.28;;;-6.03;100.00
59375;BME280;45172;55.006;73.460;2024-02-26T18:41:48;101929.41;;;-6.29;100.00
59375;BME280;45172;55.006;73.460;2024-02-26T18:44:16;101941.16;;;-6.24;100.00
59375;BME280;45172;55.006;73.460;2024-02-26T18:46:44;101936.97;;;-6.30;100.00
59375;BME280;45172;55.006;73.460;2024-02-26T18:49:11;101959.09;;;-6.16;100.00
59375;BME280;45172;55.006;73.460;2024-02-26T18:51:38;101974.00;;;-6.14;100.00
59375;BME280;45172;55.006;73.460;2024-02-26T18:54:08;101967.78;;;-6.16;100.00
59375;BME280;45172;55.006;73.460;2024-02-26T18:56:35;101968.84;;;-6.14;100.00
59375;BME280;45172;55.006;73.460;2024-02-26T18:59:02;101969.59;;;-6.15;100.00
59375;BME280;45172;55.006;73.460;2024-02-26T19:01:28;101952.19;;;-6.25;100.00
59375;BME280;45172;55.006;73.460;2024-02-26T19:03:55;101974.00;;;-6.14;100.00
59375;BME280;45172;55.006;73.460;2024-02-26T19:06:21;101924.41;;;-6.43;100.00
59375;BME280;45172;55.006;73.460;2024-02-26T19:08:48;101953.88;;;-6.25;100.00
59375;BME280;45172;55.006;73.460;2024-02-26T19:11:14;101952.06;;;-6.26;100.00
59375;BME280;45172;55.006;73.460;2024-02-26T19:13:42;101952.81;;;-6.27;100.00
59375;BME280;45172;55.006;73.460;2024-02-26T19:16:08;101944.78;;;-6.38;100.00
59375;BME280;45172;55.006;73.460;2024-02-26T19:18:35;101921.91;;;-6.51;100.00
59375;BME280;45172;55.006;73.460;2024-02-26T19:21:02;101927.41;;;-6.48;100.00
59375;BME280;45172;55.006;73.460;2024-02-26T19:23:28;101993.41;;;-6.17;100.00
59375;BME280;45172;55.006;73.460;2024-02-26T19:25:55;101993.41;;;-6.17;100.00
59375;BME280;45172;55.006;73.460;2024-02-26T19:28:21;101973.44;;;-6.27;100.00
59375;BME280;45172;55.006;73.460;2024-02-26T19:30:47;101936.81;;;-6.48;100.00
59375;BME280;45172;55.006;73.460;2024-02-26T19:33:14;101976.94;;;-6.27;100.00
59375;BME280;45172;55.006;73.460;2024-02-26T19:35:41;101989.50;;;-6.14;100.00
59375;BME280;45172;55.006;73.460;2024-02-26T19:38:08;101921.59;;;-6.54;100.00
59375;BME280;45172;55.006;73.460;2024-02-26T19:40:35;101900.38;;;-6.67;100.00
59375;BME280;45172;55.006;73.460;2024-02-26T19:43:01;101941.16;;;-6.40;100.00
59375;BME280;45172;55.006;73.460;2024-02-26T19:45:29;101885.47;;;-6.70;100.00
59375;BME280;45172;55.006;73.460;2024-02-26T19:47:56;102003.81;;;-6.09;100.00
59375;BME280;45172;55.006;73.460;2024-02-26T19:50:22;102001.41;;;-6.07;100.00
59375;BME280;45172;55.006;73.460;2024-02-26T19:52:50;101991.00;;;-6.16;100.00
59375;BME280;45172;55.006;73.460;2024-02-26T19:55:17;102019.19;;;-6.01;100.00
59375;BME280;45172;55.006;73.460;2024-02-26T19:57:44;101972.25;;;-6.22;100.00
59375;BME280;45172;55.006;73.460;2024-02-26T20:00:11;101990.06;;;-6.16;100.00
59375;BME280;45172;55.006;73.460;2024-02-26T20:02:37;101985.25;;;-6.13;100.00
59375;BME280;45172;55.006;73.460;2024-02-26T20:05:04;102018.44;;;-6.00;100.00
59375;BME280;45172;55.006;73.460;2024-02-26T20:07:31;101983.66;;;-6.20;100.00
59375;BME280;45172;55.006;73.460;2024-02-26T20:09:57;101962.84;;;-6.38;100.00
59375;BME280;45172;55.006;73.460;2024-02-26T20:12:25;102025.16;;;-6.02;100.00
59375;BME280;45172;55.006;73.460;2024-02-26T20:14:52;101901.25;;;-6.67;100.00
59375;BME280;45172;55.006;73.460;2024-02-26T20:17:18;101966.94;;;-6.40;100.00
59375;BME280;45172;55.006;73.460;2024-02-26T20:19:46;101969.34;;;-6.41;100.00
59375;BME280;45172;55.006;73.460;2024-02-26T20:22:13;102014.31;;;-6.07;100.00
59375;BME280;45172;55.006;73.460;2024-02-26T20:24:42;101991.50;;;-6.27;100.00
59375;BME280;45172;55.006;73.460;2024-02-26T20:27:10;101970.41;;;-6.39;100.00
59375;BME280;45172;55.006;73.460;2024-02-26T20:29:37;101991.31;;;-6.29;100.00
59375;BME280;45172;55.006;73.460;2024-02-26T20:32:04;102005.97;;;-6.21;100.00
59375;BME280;45172;55.006;73.460;2024-02-26T20:34:31;101949.97;;;-6.54;100.00
59375;BME280;45172;55.006;73.460;2024-02-26T20:36:58;101933.13;;;-6.66;100.00
59375;BME280;45172;55.006;73.460;2024-02-26T20:39:26;101989.66;;;-6.28;100.00
59375;BME280;45172;55.006;73.460;2024-02-26T20:41:53;101915.34;;;-6.72;100.00
59375;BME280;45172;55.006;73.460;2024-02-26T20:44:19;101927.22;;;-6.65;100.00
59375;BME280;45172;55.006;73.460;2024-02-26T20:46:45;101978.50;;;-6.36;100.00
59375;BME280;45172;55.006;73.460;2024-02-26T20:49:12;101993.97;;;-6.36;100.00
59375;BME280;45172;55.006;73.460;2024-02-26T20:51:38;101972.41;;;-6.37;100.00
59375;BME280;45172;55.006;73.460;2024-02-26T20:54:06;101922.41;;;-6.62;100.00
59375;BME280;45172;55.006;73.460;2024-02-26T20:56:37;101973.34;;;-6.36;100.00
59375;BME280;45172;55.006;73.460;2024-02-26T20:59:03;101970.78;;;-6.36;100.00
59375;BME280;45172;55.006;73.460;2024-02-26T21:01:31;101977.44;;;-6.38;100.00
59375;BME280;45172;55.006;73.460;2024-02-26T21:03:57;101914.97;;;-6.75;100.00
59375;BME280;45172;55.006;73.460;2024-02-26T21:06:23;101978.16;;;-6.39;100.00
59375;BME280;45172;55.006;73.460;2024-02-26T21:08:50;101986.81;;;-6.39;100.00
59375;BME280;45172;55.006;73.460;2024-02-26T21:11:17;101979.06;;;-6.39;100.00
59375;BME280;45172;55.006;73.460;2024-02-26T21:13:44;101955.84;;;-6.55;100.00
59375;BME280;45172;55.006;73.460;2024-02-26T21:16:10;101945.53;;;-6.55;100.00
59375;BME280;45172;55.006;73.460;2024-02-26T21:18:37;101979.94;;;-6.31;100.00
59375;BME280;45172;55.006;73.460;2024-02-26T21:21:06;101981.25;;;-6.35;100.00
59375;BME280;45172;55.006;73.460;2024-02-26T21:23:32;101980.09;;;-6.29;100.00
59375;BME280;45172;55.006;73.460;2024-02-26T21:25:58;101992.09;;;-6.30;100.00
59375;BME280;45172;55.006;73.460;2024-02-26T21:28:25;101899.50;;;-6.75;100.00
59375;BME280;45172;55.006;73.460;2024-02-26T21:30:51;101980.84;;;-6.30;100.00
59375;BME280;45172;55.006;73.460;2024-02-26T21:33:22;101898.53;;;-6.68;100.00
59375;BME280;45172;55.006;73.460;2024-02-26T21:35:48;101981.34;;;-6.26;100.00
59375;BME280;45172;55.006;73.460;2024-02-26T21:38:15;101962.47;;;-6.34;100.00
59375;BME280;45172;55.006;73.460;2024-02-26T21:40:42;101912.09;;;-6.62;100.00
59375;BME280;45172;55.006;73.460;2024-02-26T21:43:09;101977.59;;;-6.21;100.00
59375;BME280;45172;55.006;73.460;2024-02-26T21:45:35;101932.56;;;-6.48;100.00
59375;BME280;45172;55.006;73.460;2024-02-26T21:48:03;101976.94;;;-6.27;100.00
59375;BME280;45172;55.006;73.460;2024-02-26T21:50:29;101970.88;;;-6.27;100.00
59375;BME280;45172;55.006;73.460;2024-02-26T21:52:56;101985.09;;;-6.15;100.00
59375;BME280;45172;55.006;73.460;2024-02-26T21:55:23;101931.22;;;-6.44;100.00
59375;BME280;45172;55.006;73.460;2024-02-26T21:57:51;101973.94;;;-6.23;100.00
59375;BME280;45172;55.006;73.460;2024-02-26T22:00:18;101975.19;;;-6.19;100.00
59375;BME280;45172;55.006;73.460;2024-02-26T22:02:44;101926.50;;;-6.48;100.00
59375;BME280;45172;55.006;73.460;2024-02-26T22:05:11;101972.13;;;-6.24;100.00
59375;BME280;45172;55.006;73.460;2024-02-26T22:07:42;101974.16;;;-6.28;100.00
59375;BME280;45172;55.006;73.460;2024-02-26T22:10:09;101922.00;;;-6.58;100.00
59375;BME280;45172;55.006;73.460;2024-02-26T22:12:37;101924.81;;;-6.64;100.00
59375;BME280;45172;55.006;73.460;2024-02-26T22:15:04;101971.41;;;-6.46;100.00
59375;BME280;45172;55.006;73.460;2024-02-26T22:17:31;101940.28;;;-6.64;100.00
59375;BME280;45172;55.006;73.460;2024-02-26T22:19:57;101924.19;;;-6.77;100.00
59375;BME280;45172;55.006;73.460;2024-02-26T22:22:24;101962.31;;;-6.58;100.00
59375;BME280;45172;55.006;73.460;2024-02-26T22:24:50;101950.41;;;-6.65;100.00
59375;BME280;45172;55.006;73.460;2024-02-26T22:27:17;101947.06;;;-6.80;100.00
59375;BME280;45172;55.006;73.460;2024-02-26T22:29:43;101934.25;;;-6.88;100.00
59375;BME280;45172;55.006;73.460;2024-02-26T22:32:10;101989.97;;;-6.57;100.00
59375;BME280;45172;55.006;73.460;2024-02-26T22:34:36;101919.31;;;-7.06;100.00
59375;BME280;45172;55.006;73.460;2024-02-26T22:37:03;101942.94;;;-6.94;100.00
59375;BME280;45172;55.006;73.460;2024-02-26T22:39:29;101938.97;;;-6.99;100.00
59375;BME280;45172;55.006;73.460;2024-02-26T22:41:55;101971.69;;;-6.75;100.00
59375;BME280;45172;55.006;73.460;2024-02-26T22:44:22;101939.63;;;-6.93;100.00
59375;BME280;45172;55.006;73.460;2024-02-26T22:46:49;101949.53;;;-6.89;100.00
59375;BME280;45172;55.006;73.460;2024-02-26T22:49:15;101959.28;;;-6.86;100.00
59375;BME280;45172;55.006;73.460;2024-02-26T22:51:41;101964.94;;;-6.82;100.00
59375;BME280;45172;55.006;73.460;2024-02-26T22:54:08;101872.47;;;-7.34;100.00
59375;BME280;45172;55.006;73.460;2024-02-26T22:56:34;101954.69;;;-6.89;100.00
59375;BME280;45172;55.006;73.460;2024-02-26T22:59:01;102013.31;;;-6.56;100.00
59375;BME280;45172;55.006;73.460;2024-02-26T23:01:33;101932.31;;;-6.97;100.00
59375;BME280;45172;55.006;73.460;2024-02-26T23:04:00;101950.47;;;-6.89;100.00
59375;BME280;45172;55.006;73.460;2024-02-26T23:06:26;101981.41;;;-6.72;100.00
59375;BME280;45172;55.006;73.460;2024-02-26T23:08:52;102006.91;;;-6.60;100.00
59375;BME280;45172;55.006;73.460;2024-02-26T23:11:19;101996.06;;;-6.64;100.00
59375;BME280;45172;55.006;73.460;2024-02-26T23:13:45;101934.94;;;-7.05;100.00
59375;BME280;45172;55.006;73.460;2024-02-26T23:16:13;101950.34;;;-6.97;100.00
59375;BME280;45172;55.006;73.460;2024-02-26T23:18:39;101979.13;;;-6.85;100.00
59375;BME280;45172;55.006;73.460;2024-02-26T23:21:06;101957.00;;;-6.99;100.00
59375;BME280;45172;55.006;73.460;2024-02-26T23:23:32;101974.47;;;-6.97;100.00
59375;BME280;45172;55.006;73.460;2024-02-26T23:25:59;101973.72;;;-6.96;100.00
59375;BME280;45172;55.006;73.460;2024-02-26T23:28:27;101988.75;;;-6.92;100.00
59375;BME280;45172;55.006;73.460;2024-02-26T23:30:54;101977.94;;;-6.96;100.00
59375;BME280;45172;55.006;73.460;2024-02-26T23:33:20;102008.19;;;-6.79;100.00
59375;BME280;45172;55.006;73.460;2024-02-26T23:35:47;102018.50;;;-6.79;100.00
59375;BME280;45172;55.006;73.460;2024-02-26T23:38:13;102017.75;;;-6.78;100.00
59375;BME280;45172;55.006;73.460;2024-02-26T23:40:40;101979.44;;;-6.98;100.00
59375;BME280;45172;55.006;73.460;2024-02-26T23:43:07;102010.91;;;-6.78;100.00
59375;BME280;45172;55.006;73.460;2024-02-26T23:45:33;102011.09;;;-6.76;100.00
59375;BME280;45172;55.006;73.460;2024-02-26T23:48:00;101961.78;;;-7.03;100.00
59375;BME280;45172;55.006;73.460;2024-02-26T23:50:26;102011.84;;;-6.77;100.00
59375;BME280;45172;55.006;73.460;2024-02-26T23:52:55;102022.91;;;-6.78;100.00
59375;BME280;45172;55.006;73.460;2024-02-26T23:55:21;102022.72;;;-6.80;100.00
59375;BME280;45172;55.006;73.460;2024-02-26T23:57:48;101990.88;;;-7.04;100.00
